createdAt,value
2017-08-03T00:00:21.300Z,1004.4
2017-08-03T00:01:21.325Z,1004.45
2017-08-03T00:02:21.354Z,1004.44
2017-08-03T00:03:21.381Z,1004.42
2017-08-03T00:04:21.409Z,1004.43
2017-08-03T00:05:21.438Z,1004.38
2017-08-03T00:06:21.464Z,1004.36
2017-08-03T00:07:21.495Z,1004.39
2017-08-03T00:08:21.522Z,1004.41
2017-08-03T00:09:21.548Z,1004.41
2017-08-03T00:10:21.578Z,1004.39
2017-08-03T00:11:21.606Z,1004.4
2017-08-03T00:12:21.632Z,1004.34
2017-08-03T00:13:21.661Z,1004.36
2017-08-03T00:14:21.687Z,1004.3
2017-08-03T00:15:21.715Z,1004.27
2017-08-03T00:16:21.744Z,1004.3
2017-08-03T00:17:21.771Z,1004.27
2017-08-03T00:18:21.802Z,1004.29
2017-08-03T00:19:21.830Z,1004.28
2017-08-03T00:20:21.858Z,1004.28
2017-08-03T00:21:21.882Z,1004.29
2017-08-03T00:22:21.911Z,1004.28
2017-08-03T00:23:21.940Z,1004.3
2017-08-03T00:24:21.965Z,1004.26
2017-08-03T00:25:21.994Z,1004.25
2017-08-03T00:26:22.027Z,1004.21
2017-08-03T00:27:22.052Z,1004.18
2017-08-03T00:28:22.077Z,1004.12
2017-08-03T00:29:22.105Z,1004.07
2017-08-03T00:30:22.136Z,1004.05
2017-08-03T00:31:22.167Z,1004
2017-08-03T00:32:22.192Z,1003.99
2017-08-03T00:33:22.219Z,1003.95
2017-08-03T00:34:22.246Z,1003.95
2017-08-03T00:35:22.275Z,1003.89
2017-08-03T00:36:22.302Z,1003.93
2017-08-03T00:37:22.328Z,1003.87
2017-08-03T00:38:22.360Z,1003.84
2017-08-03T00:39:22.395Z,1003.84
2017-08-03T00:40:22.413Z,1003.82
2017-08-03T00:41:22.441Z,1003.83
2017-08-03T00:42:22.466Z,1003.85
2017-08-03T00:43:22.496Z,1003.83
2017-08-03T00:44:22.522Z,1003.82
2017-08-03T00:45:22.551Z,1003.83
2017-08-03T00:46:22.577Z,1003.8
2017-08-03T00:47:22.606Z,1003.8
2017-08-03T00:48:22.633Z,1003.79
2017-08-03T00:49:22.662Z,1003.85
2017-08-03T00:50:22.689Z,1003.83
2017-08-03T00:51:22.718Z,1003.86
2017-08-03T00:52:22.743Z,1003.86
2017-08-03T00:53:22.769Z,1003.91
2017-08-03T00:54:22.798Z,1003.85
2017-08-03T00:55:22.825Z,1003.85
2017-08-03T00:56:22.855Z,1003.83
2017-08-03T00:57:22.882Z,1003.83
2017-08-03T00:58:22.908Z,1003.81
2017-08-03T00:59:22.935Z,1003.83
2017-08-03T01:00:22.966Z,1003.86
2017-08-03T01:01:22.990Z,1003.87
2017-08-03T01:02:23.020Z,1003.82
2017-08-03T01:03:23.047Z,1003.77
2017-08-03T01:04:23.073Z,1003.71
2017-08-03T01:05:23.101Z,1003.71
2017-08-03T01:06:23.127Z,1003.69
2017-08-03T01:07:23.155Z,1003.67
2017-08-03T01:08:23.183Z,1003.67
2017-08-03T01:09:23.326Z,1003.72
2017-08-03T01:10:23.244Z,1003.7
2017-08-03T01:11:23.266Z,1003.68
2017-08-03T01:12:23.291Z,1003.69
2017-08-03T01:13:23.322Z,1003.7
2017-08-03T01:14:23.347Z,1003.71
2017-08-03T01:15:23.375Z,1003.73
2017-08-03T01:16:23.402Z,1003.75
2017-08-03T01:17:23.435Z,1003.76
2017-08-03T01:18:23.456Z,1003.79
2017-08-03T01:19:23.485Z,1003.79
2017-08-03T01:20:23.511Z,1003.77
2017-08-03T01:21:23.538Z,1003.8
2017-08-03T01:22:23.567Z,1003.77
2017-08-03T01:23:23.594Z,1003.75
2017-08-03T01:24:23.620Z,1003.77
2017-08-03T01:25:23.670Z,1003.79
2017-08-03T01:26:23.677Z,1003.74
2017-08-03T01:27:23.704Z,1003.76
2017-08-03T01:28:23.783Z,1003.73
2017-08-03T01:29:23.759Z,1003.74
2017-08-03T01:30:23.784Z,1003.69
2017-08-03T01:31:23.812Z,1003.72
2017-08-03T01:32:23.841Z,1003.68
2017-08-03T01:33:23.867Z,1003.67
2017-08-03T01:34:23.894Z,1003.67
2017-08-03T01:35:23.920Z,1003.67
2017-08-03T01:36:23.954Z,1003.62
2017-08-03T01:37:23.977Z,1003.6
2017-08-03T01:38:24.008Z,1003.61
2017-08-03T01:39:24.030Z,1003.58
2017-08-03T01:40:24.057Z,1003.57
2017-08-03T01:41:24.083Z,1003.55
2017-08-03T01:42:24.111Z,1003.54
2017-08-03T01:43:24.140Z,1003.53
2017-08-03T01:44:24.166Z,1003.54
2017-08-03T01:45:24.192Z,1003.56
2017-08-03T01:46:24.221Z,1003.55
2017-08-03T01:47:24.245Z,1003.54
2017-08-03T01:48:24.275Z,1003.52
2017-08-03T01:49:24.301Z,1003.53
2017-08-03T01:50:24.327Z,1003.46
2017-08-03T01:51:24.356Z,1003.47
2017-08-03T01:52:24.407Z,1003.45
2017-08-03T01:53:24.409Z,1003.42
2017-08-03T01:54:24.439Z,1003.41
2017-08-03T01:55:24.466Z,1003.41
2017-08-03T01:56:24.491Z,1003.35
2017-08-03T01:57:24.602Z,1003.36
2017-08-03T01:58:24.550Z,1003.32
2017-08-03T01:59:24.570Z,1003.33
2017-08-03T02:00:24.600Z,1003.34
2017-08-03T02:01:24.626Z,1003.3
2017-08-03T02:02:24.656Z,1003.3
2017-08-03T02:03:24.680Z,1003.28
2017-08-03T02:04:24.707Z,1003.26
2017-08-03T02:05:24.733Z,1003.24
2017-08-03T02:06:24.762Z,1003.22
2017-08-03T02:07:24.790Z,1003.19
2017-08-03T02:08:24.817Z,1003.18
2017-08-03T02:09:24.842Z,1003.17
2017-08-03T02:10:24.902Z,1003.15
2017-08-03T02:11:24.897Z,1003.17
2017-08-03T02:12:24.925Z,1003.19
2017-08-03T02:13:24.950Z,1003.12
2017-08-03T02:14:24.976Z,1003.05
2017-08-03T02:15:25.005Z,1003.06
2017-08-03T02:16:25.055Z,1003.05
2017-08-03T02:17:25.150Z,1003.02
2017-08-03T02:18:25.180Z,1003.08
2017-08-03T02:19:25.112Z,1003.09
2017-08-03T02:20:25.139Z,1003.1
2017-08-03T02:21:25.166Z,1003.11
2017-08-03T02:22:25.337Z,1003.13
2017-08-03T02:23:25.335Z,1003.11
2017-08-03T02:24:25.249Z,1003.12
2017-08-03T02:25:25.275Z,1003.05
2017-08-03T02:26:25.299Z,1003.03
2017-08-03T02:27:25.502Z,1003.02
2017-08-03T02:28:25.355Z,1003.07
2017-08-03T02:29:25.383Z,1003.11
2017-08-03T02:30:25.496Z,1003.12
2017-08-03T02:31:25.495Z,1003.09
2017-08-03T02:32:25.461Z,1003.11
2017-08-03T02:33:25.487Z,1003.08
2017-08-03T02:34:25.515Z,1003.11
2017-08-03T02:35:25.542Z,1003.1
2017-08-03T02:36:25.567Z,1003.11
2017-08-03T02:37:25.593Z,1003.14
2017-08-03T02:38:25.707Z,1003.07
2017-08-03T02:39:25.648Z,1003.04
2017-08-03T02:40:25.674Z,1003.03
2017-08-03T02:41:25.703Z,1003
2017-08-03T02:42:25.728Z,1002.96
2017-08-03T02:43:25.755Z,1002.94
2017-08-03T02:44:25.781Z,1002.96
2017-08-03T02:45:25.809Z,1002.95
2017-08-03T02:46:25.835Z,1002.89
2017-08-03T02:47:25.863Z,1002.88
2017-08-03T02:48:25.890Z,1002.87
2017-08-03T02:49:25.914Z,1002.91
2017-08-03T02:50:25.940Z,1002.91
2017-08-03T02:51:25.967Z,1002.92
2017-08-03T02:52:25.999Z,1002.92
2017-08-03T02:53:26.024Z,1002.9
2017-08-03T02:54:26.049Z,1002.9
2017-08-03T02:55:26.092Z,1002.93
2017-08-03T02:56:26.101Z,1002.94
2017-08-03T02:57:26.130Z,1002.95
2017-08-03T02:58:26.154Z,1002.94
2017-08-03T02:59:26.182Z,1002.93
2017-08-03T03:00:26.210Z,1002.83
2017-08-03T03:01:26.234Z,1002.83
2017-08-03T03:02:26.261Z,1002.79
2017-08-03T03:03:26.287Z,1002.85
2017-08-03T03:04:26.317Z,1002.8
2017-08-03T03:05:26.341Z,1002.82
2017-08-03T03:06:26.435Z,1002.8
2017-08-03T03:07:26.397Z,1002.79
2017-08-03T03:08:26.422Z,1002.73
2017-08-03T03:09:26.451Z,1002.69
2017-08-03T03:10:26.504Z,1002.69
2017-08-03T03:11:26.502Z,1002.7
2017-08-03T03:12:26.532Z,1002.71
2017-08-03T03:13:26.553Z,1002.68
2017-08-03T03:14:26.579Z,1002.76
2017-08-03T03:15:26.606Z,1002.77
2017-08-03T03:16:26.633Z,1002.78
2017-08-03T03:17:26.660Z,1002.78
2017-08-03T03:18:26.684Z,1002.75
2017-08-03T03:19:26.711Z,1002.76
2017-08-03T03:20:26.740Z,1002.76
2017-08-03T03:21:26.765Z,1002.76
2017-08-03T03:22:26.791Z,1002.7
2017-08-03T03:23:26.826Z,1002.69
2017-08-03T03:24:26.845Z,1002.7
2017-08-03T03:25:26.870Z,1002.67
2017-08-03T03:26:26.897Z,1002.68
2017-08-03T03:27:26.922Z,1002.61
2017-08-03T03:28:26.950Z,1002.59
2017-08-03T03:29:26.976Z,1002.53
2017-08-03T03:30:27.006Z,1002.5
2017-08-03T03:31:27.027Z,1002.48
2017-08-03T03:32:27.054Z,1002.49
2017-08-03T03:33:27.080Z,1002.44
2017-08-03T03:34:27.106Z,1002.49
2017-08-03T03:35:27.134Z,1002.49
2017-08-03T03:36:27.160Z,1002.49
2017-08-03T03:37:27.187Z,1002.5
2017-08-03T03:38:27.212Z,1002.54
2017-08-03T03:39:27.239Z,1002.52
2017-08-03T03:40:27.266Z,1002.48
2017-08-03T03:41:27.293Z,1002.53
2017-08-03T03:42:27.318Z,1002.51
2017-08-03T03:43:27.347Z,1002.52
2017-08-03T03:44:27.372Z,1002.5
2017-08-03T03:45:27.396Z,1002.47
2017-08-03T03:46:27.426Z,1002.49
2017-08-03T03:47:27.449Z,1002.46
2017-08-03T03:48:27.476Z,1002.53
2017-08-03T03:49:27.502Z,1002.53
2017-08-03T03:50:27.528Z,1002.51
2017-08-03T03:51:27.555Z,1002.49
2017-08-03T03:52:27.581Z,1002.45
2017-08-03T03:53:27.606Z,1002.42
2017-08-03T03:54:27.635Z,1002.4
2017-08-03T03:55:27.660Z,1002.41
2017-08-03T03:56:27.684Z,1002.42
2017-08-03T03:57:27.712Z,1002.42
2017-08-03T03:58:27.739Z,1002.44
2017-08-03T03:59:27.765Z,1002.42
2017-08-03T04:00:27.791Z,1002.4
2017-08-03T04:01:27.815Z,1002.43
2017-08-03T04:02:27.853Z,1002.38
2017-08-03T04:03:27.868Z,1002.39
2017-08-03T04:04:27.894Z,1002.4
2017-08-03T04:05:27.920Z,1002.44
2017-08-03T04:06:27.947Z,1002.44
2017-08-03T04:07:27.973Z,1002.46
2017-08-03T04:08:28.003Z,1002.46
2017-08-03T04:09:28.026Z,1002.45
2017-08-03T04:10:28.052Z,1002.46
2017-08-03T04:11:28.077Z,1002.45
2017-08-03T04:12:28.106Z,1002.45
2017-08-03T04:13:28.131Z,1002.42
2017-08-03T04:14:28.156Z,1002.4
2017-08-03T04:15:28.181Z,1002.34
2017-08-03T04:16:28.206Z,1002.33
2017-08-03T04:17:28.237Z,1002.32
2017-08-03T04:18:28.260Z,1002.28
2017-08-03T04:19:28.285Z,1002.28
2017-08-03T04:20:28.311Z,1002.26
2017-08-03T04:21:28.339Z,1002.29
2017-08-03T04:22:28.362Z,1002.25
2017-08-03T04:23:28.391Z,1002.24
2017-08-03T04:24:28.417Z,1002.2
2017-08-03T04:25:28.442Z,1002.13
2017-08-03T04:26:28.466Z,1002.09
2017-08-03T04:27:28.494Z,1002.08
2017-08-03T04:28:28.521Z,1002.08
2017-08-03T04:29:28.551Z,1002.07
2017-08-03T04:30:28.571Z,1002.08
2017-08-03T04:31:28.597Z,1001.96
2017-08-03T04:32:28.624Z,1001.98
2017-08-03T04:33:28.648Z,1001.94
2017-08-03T04:34:28.676Z,1001.94
2017-08-03T04:35:28.700Z,1001.94
2017-08-03T04:36:28.726Z,1001.92
2017-08-03T04:37:28.753Z,1001.91
2017-08-03T04:38:28.781Z,1001.9
2017-08-03T04:39:28.808Z,1001.9
2017-08-03T04:40:28.834Z,1001.91
2017-08-03T04:41:28.859Z,1001.91
2017-08-03T04:42:28.882Z,1001.86
2017-08-03T04:43:28.910Z,1001.86
2017-08-03T04:44:28.933Z,1001.86
2017-08-03T04:45:28.961Z,1001.92
2017-08-03T04:46:28.992Z,1001.86
2017-08-03T04:47:29.013Z,1001.87
2017-08-03T04:48:29.044Z,1001.88
2017-08-03T04:49:29.066Z,1001.9
2017-08-03T04:50:29.092Z,1001.86
2017-08-03T04:51:29.116Z,1001.87
2017-08-03T04:52:29.142Z,1001.83
2017-08-03T04:53:29.168Z,1001.77
2017-08-03T04:54:29.194Z,1001.8
2017-08-03T04:55:29.222Z,1001.74
2017-08-03T04:56:29.246Z,1001.74
2017-08-03T04:57:29.272Z,1001.73
2017-08-03T04:58:29.298Z,1001.75
2017-08-03T04:59:29.325Z,1001.74
2017-08-03T05:00:29.350Z,1001.72
2017-08-03T05:01:29.376Z,1001.75
2017-08-03T05:02:29.401Z,1001.75
2017-08-03T05:03:29.427Z,1001.8
2017-08-03T05:04:29.454Z,1001.78
2017-08-03T05:05:29.480Z,1001.78
2017-08-03T05:06:29.510Z,1001.8
2017-08-03T05:07:29.533Z,1001.79
2017-08-03T05:08:29.560Z,1001.77
2017-08-03T05:09:29.583Z,1001.77
2017-08-03T05:10:29.609Z,1001.78
2017-08-03T05:11:29.635Z,1001.79
2017-08-03T05:12:29.663Z,1001.75
2017-08-03T05:13:29.694Z,1001.79
2017-08-03T05:14:29.714Z,1001.73
2017-08-03T05:15:29.739Z,1001.72
2017-08-03T05:16:29.766Z,1001.7
2017-08-03T05:17:29.793Z,1001.71
2017-08-03T05:18:29.818Z,1001.7
2017-08-03T05:19:29.844Z,1001.68
2017-08-03T05:20:29.873Z,1001.7
2017-08-03T05:21:29.895Z,1001.69
2017-08-03T05:22:29.923Z,1001.66
2017-08-03T05:23:29.949Z,1001.69
2017-08-03T05:24:29.973Z,1001.66
2017-08-03T05:25:30.002Z,1001.67
2017-08-03T05:26:30.027Z,1001.65
2017-08-03T05:27:30.052Z,1001.62
2017-08-03T05:28:30.077Z,1001.58
2017-08-03T05:29:30.104Z,1001.53
2017-08-03T05:30:30.131Z,1001.54
2017-08-03T05:31:30.155Z,1001.51
2017-08-03T05:32:30.182Z,1001.51
2017-08-03T05:33:30.208Z,1001.51
2017-08-03T05:34:30.234Z,1001.54
2017-08-03T05:35:30.260Z,1001.55
2017-08-03T05:36:30.286Z,1001.54
2017-08-03T05:37:30.312Z,1001.52
2017-08-03T05:38:30.338Z,1001.56
2017-08-03T05:39:30.365Z,1001.53
2017-08-03T05:40:30.395Z,1001.59
2017-08-03T05:41:30.416Z,1001.57
2017-08-03T05:42:30.448Z,1001.57
2017-08-03T05:43:30.468Z,1001.5
2017-08-03T05:44:30.496Z,1001.49
2017-08-03T05:45:30.522Z,1001.5
2017-08-03T05:46:30.547Z,1001.5
2017-08-03T05:47:30.573Z,1001.49
2017-08-03T05:48:30.600Z,1001.49
2017-08-03T05:49:30.625Z,1001.45
2017-08-03T05:50:30.651Z,1001.48
2017-08-03T05:51:30.679Z,1001.45
2017-08-03T05:52:30.704Z,1001.44
2017-08-03T05:53:30.731Z,1001.4
2017-08-03T05:54:30.753Z,1001.43
2017-08-03T05:55:30.782Z,1001.43
2017-08-03T05:56:30.808Z,1001.45
2017-08-03T05:57:30.834Z,1001.43
2017-08-03T05:58:30.861Z,1001.43
2017-08-03T05:59:30.887Z,1001.43
2017-08-03T06:00:30.913Z,1001.41
2017-08-03T06:01:30.939Z,1001.4
2017-08-03T06:02:30.998Z,1001.41
2017-08-03T06:03:30.993Z,1001.33
2017-08-03T06:04:31.017Z,1001.25
2017-08-03T06:05:31.044Z,1001.26
2017-08-03T06:06:31.070Z,1001.22
2017-08-03T06:07:31.097Z,1001.26
2017-08-03T06:08:31.125Z,1001.24
2017-08-03T06:09:31.149Z,1001.25
2017-08-03T06:10:31.176Z,1001.25
2017-08-03T06:11:31.201Z,1001.24
2017-08-03T06:12:31.227Z,1001.23
2017-08-03T06:13:31.254Z,1001.18
2017-08-03T06:14:31.280Z,1001.18
2017-08-03T06:15:31.306Z,1001.18
2017-08-03T06:16:31.333Z,1001.2
2017-08-03T06:17:31.362Z,1001.19
2017-08-03T06:18:31.391Z,1001.19
2017-08-03T06:19:31.411Z,1001.23
2017-08-03T06:20:31.437Z,1001.28
2017-08-03T06:21:31.464Z,1001.3
2017-08-03T06:22:31.489Z,1001.31
2017-08-03T06:23:31.517Z,1001.24
2017-08-03T06:24:31.545Z,1001.28
2017-08-03T06:25:31.570Z,1001.23
2017-08-03T06:26:31.596Z,1001.23
2017-08-03T06:27:31.622Z,1001.23
2017-08-03T06:28:31.648Z,1001.26
2017-08-03T06:29:31.677Z,1001.29
2017-08-03T06:30:31.702Z,1001.28
2017-08-03T06:31:31.728Z,1001.26
2017-08-03T06:32:31.755Z,1001.25
2017-08-03T06:33:31.780Z,1001.27
2017-08-03T06:34:32.057Z,1001.21
2017-08-03T06:35:31.833Z,1001.18
2017-08-03T06:36:31.860Z,1001.16
2017-08-03T06:37:31.884Z,1001.11
2017-08-03T06:38:31.913Z,1001.06
2017-08-03T06:39:31.939Z,1001.01
2017-08-03T06:40:31.965Z,1001.02
2017-08-03T06:41:31.992Z,1001.03
2017-08-03T06:42:32.020Z,1001.02
2017-08-03T06:43:32.045Z,1001.07
2017-08-03T06:44:32.073Z,1001.04
2017-08-03T06:45:32.102Z,1001.06
2017-08-03T06:46:32.125Z,1001.05
2017-08-03T06:47:32.152Z,1001.1
2017-08-03T06:48:32.258Z,1001.13
2017-08-03T06:49:32.204Z,1001.17
2017-08-03T06:50:32.232Z,1001.14
2017-08-03T06:51:32.257Z,1001.13
2017-08-03T06:52:32.286Z,1001.18
2017-08-03T06:53:32.313Z,1001.22
2017-08-03T06:54:32.342Z,1001.26
2017-08-03T06:55:32.364Z,1001.23
2017-08-03T06:56:32.391Z,1001.25
2017-08-03T06:57:32.419Z,1001.2
2017-08-03T06:58:32.445Z,1001.14
2017-08-03T06:59:32.473Z,1001.09
2017-08-03T07:00:32.500Z,1001.08
2017-08-03T07:01:32.524Z,1001.09
2017-08-03T07:02:32.551Z,1001.03
2017-08-03T07:03:32.580Z,1001
2017-08-03T07:04:32.605Z,1000.99
2017-08-03T07:05:32.634Z,1000.94
2017-08-03T07:06:32.658Z,1000.91
2017-08-03T07:07:32.686Z,1000.87
2017-08-03T07:08:32.713Z,1000.86
2017-08-03T07:09:32.740Z,1000.87
2017-08-03T07:10:32.770Z,1000.88
2017-08-03T07:11:32.794Z,1000.87
2017-08-03T07:12:32.819Z,1000.92
2017-08-03T07:13:32.847Z,1000.9
2017-08-03T07:14:32.873Z,1000.9
2017-08-03T07:15:32.901Z,1000.84
2017-08-03T07:16:32.928Z,1000.86
2017-08-03T07:17:32.953Z,1000.84
2017-08-03T07:18:32.981Z,1000.83
2017-08-03T07:19:33.008Z,1000.85
2017-08-03T07:20:33.038Z,1000.79
2017-08-03T07:21:33.064Z,1000.83
2017-08-03T07:22:33.089Z,1000.84
2017-08-03T07:23:33.116Z,1000.83
2017-08-03T07:24:33.143Z,1000.85
2017-08-03T07:25:33.170Z,1000.83
2017-08-03T07:26:33.197Z,1000.89
2017-08-03T07:27:33.225Z,1000.96
2017-08-03T07:28:33.252Z,1001.02
2017-08-03T07:29:33.282Z,1001.12
2017-08-03T07:30:33.305Z,1001.24
2017-08-03T07:31:33.333Z,1001.29
2017-08-03T07:32:33.358Z,1001.31
2017-08-03T07:33:33.385Z,1001.39
2017-08-03T07:34:33.414Z,1001.44
2017-08-03T07:35:33.440Z,1001.54
2017-08-03T07:36:33.467Z,1001.66
2017-08-03T07:37:33.496Z,1001.73
2017-08-03T07:38:33.525Z,1001.7
2017-08-03T07:39:33.548Z,1001.77
2017-08-03T07:40:33.576Z,1001.84
2017-08-03T07:41:33.603Z,1001.85
2017-08-03T07:42:34.241Z,1002.01
2017-08-03T07:43:33.656Z,1002.09
2017-08-03T07:44:33.684Z,1002.02
2017-08-03T07:45:33.713Z,1002.08
2017-08-03T07:46:33.737Z,1002.06
2017-08-03T07:47:33.782Z,1002.13
2017-08-03T07:48:33.792Z,1002.17
2017-08-03T07:49:33.821Z,1002.22
2017-08-03T07:50:33.849Z,1002.28
2017-08-03T07:51:33.873Z,1002.3
2017-08-03T07:52:33.902Z,1002.31
2017-08-03T07:53:33.928Z,1002.29
2017-08-03T07:54:33.955Z,1002.37
2017-08-03T07:55:33.983Z,1002.42
2017-08-03T07:56:34.010Z,1002.44
2017-08-03T07:57:34.039Z,1002.49
2017-08-03T07:58:34.062Z,1002.4
2017-08-03T07:59:34.091Z,1002.52
2017-08-03T08:00:34.121Z,1002.51
2017-08-03T08:01:34.145Z,1002.52
2017-08-03T08:02:34.172Z,1002.51
2017-08-03T08:03:34.200Z,1002.37
2017-08-03T08:04:34.228Z,1002.39
2017-08-03T08:05:34.253Z,1002.29
2017-08-03T08:06:34.280Z,1002.29
2017-08-03T08:07:34.308Z,1002.24
2017-08-03T08:08:34.334Z,1002.21
2017-08-03T08:09:34.366Z,1002.14
2017-08-03T08:10:34.391Z,1002.1
2017-08-03T08:11:34.420Z,1002.07
2017-08-03T08:12:34.449Z,1002.08
2017-08-03T08:13:34.476Z,1002.09
2017-08-03T08:14:34.500Z,1002.03
2017-08-03T08:15:34.533Z,1001.87
2017-08-03T08:16:34.555Z,1001.82
2017-08-03T08:17:34.581Z,1001.85
2017-08-03T08:18:34.609Z,1001.84
2017-08-03T08:19:34.636Z,1001.76
2017-08-03T08:20:34.666Z,1001.74
2017-08-03T08:21:34.695Z,1001.66
2017-08-03T08:22:34.719Z,1001.64
2017-08-03T08:23:34.749Z,1001.59
2017-08-03T08:24:34.776Z,1001.51
2017-08-03T08:25:34.800Z,1001.45
2017-08-03T08:26:34.825Z,1001.4
2017-08-03T08:27:34.953Z,1001.37
2017-08-03T08:28:34.880Z,1001.37
2017-08-03T08:29:34.909Z,1001.31
2017-08-03T08:30:34.945Z,1001.31
2017-08-03T08:31:34.966Z,1001.29
2017-08-03T08:32:34.990Z,1001.35
2017-08-03T08:33:35.017Z,1001.35
2017-08-03T08:34:35.048Z,1001.33
2017-08-03T08:35:35.078Z,1001.3
2017-08-03T08:36:35.101Z,1001.23
2017-08-03T08:37:35.130Z,1001.22
2017-08-03T08:38:35.156Z,1001.22
2017-08-03T08:39:35.183Z,1001.26
2017-08-03T08:40:35.213Z,1001.2
2017-08-03T08:41:35.235Z,1001.19
2017-08-03T08:42:35.263Z,1001.19
2017-08-03T08:43:35.292Z,1001.16
2017-08-03T08:44:35.319Z,1001.12
2017-08-03T08:45:35.349Z,1001.08
2017-08-03T08:46:35.372Z,1001.1
2017-08-03T08:47:35.399Z,1001.05
2017-08-03T08:48:35.426Z,1000.96
2017-08-03T08:49:35.455Z,1000.95
2017-08-03T08:50:35.481Z,1000.96
2017-08-03T08:51:35.510Z,1001.02
2017-08-03T08:52:35.537Z,1001.04
2017-08-03T08:53:35.564Z,1001.1
2017-08-03T08:54:35.593Z,1001.09
2017-08-03T08:55:35.618Z,1001.09
2017-08-03T08:56:35.644Z,1001.08
2017-08-03T08:57:35.673Z,1001.04
2017-08-03T08:58:35.711Z,1001
2017-08-03T08:59:35.725Z,1000.99
2017-08-03T09:00:35.752Z,1000.93
2017-08-03T09:01:35.779Z,1000.92
2017-08-03T09:02:35.809Z,1000.96
2017-08-03T09:03:35.835Z,1000.95
2017-08-03T09:04:35.861Z,1000.91
2017-08-03T09:05:35.889Z,1000.86
2017-08-03T09:06:35.915Z,1000.86
2017-08-03T09:07:35.943Z,1000.74
2017-08-03T09:08:35.971Z,1000.79
2017-08-03T09:09:35.999Z,1000.87
2017-08-03T09:10:36.026Z,1000.95
2017-08-03T09:11:36.053Z,1001.07
2017-08-03T09:12:36.082Z,1001.19
2017-08-03T09:13:36.105Z,1001.22
2017-08-03T09:14:36.132Z,1001.23
2017-08-03T09:15:36.160Z,1001.27
2017-08-03T09:16:36.188Z,1001.35
2017-08-03T09:17:36.219Z,1001.34
2017-08-03T09:18:36.242Z,1001.39
2017-08-03T09:19:36.269Z,1001.5
2017-08-03T09:20:36.304Z,1001.55
2017-08-03T09:21:36.323Z,1001.59
2017-08-03T09:22:36.350Z,1001.62
2017-08-03T09:23:36.379Z,1001.52
2017-08-03T09:24:36.407Z,1001.51
2017-08-03T09:25:36.440Z,1001.49
2017-08-03T09:26:36.459Z,1001.44
2017-08-03T09:27:36.487Z,1001.45
2017-08-03T09:28:36.513Z,1001.42
2017-08-03T09:29:36.540Z,1001.4
2017-08-03T09:30:36.570Z,1001.34
2017-08-03T09:31:36.597Z,1001.4
2017-08-03T09:32:36.705Z,1001.41
2017-08-03T09:33:36.650Z,1001.4
2017-08-03T09:34:36.675Z,1001.4
2017-08-03T09:35:36.704Z,1001.38
2017-08-03T09:36:36.730Z,1001.36
2017-08-03T09:37:36.758Z,1001.35
2017-08-03T09:38:36.789Z,1001.32
2017-08-03T09:39:36.815Z,1001.26
2017-08-03T09:40:36.841Z,1001.25
2017-08-03T09:41:36.868Z,1001.23
2017-08-03T09:42:36.895Z,1001.25
2017-08-03T09:43:36.924Z,1001.3
2017-08-03T09:44:36.950Z,1001.33
2017-08-03T09:45:36.978Z,1001.28
2017-08-03T09:46:37.005Z,1001.26
2017-08-03T09:47:37.031Z,1001.28
2017-08-03T09:48:37.058Z,1001.33
2017-08-03T09:49:37.088Z,1001.34
2017-08-03T09:50:37.113Z,1001.33
2017-08-03T09:51:37.140Z,1001.26
2017-08-03T09:52:37.170Z,1001.12
2017-08-03T09:53:37.197Z,1001.07
2017-08-03T09:54:37.224Z,1001.06
2017-08-03T09:55:37.251Z,1001.08
2017-08-03T09:56:37.280Z,1001.04
2017-08-03T09:57:37.307Z,1001.1
2017-08-03T09:58:37.333Z,1001.16
2017-08-03T09:59:37.362Z,1001.19
2017-08-03T10:00:37.389Z,1001.12
2017-08-03T10:01:37.420Z,1001.14
2017-08-03T10:02:37.445Z,1001.2
2017-08-03T10:03:37.474Z,1001.22
2017-08-03T10:04:37.500Z,1001.2
2017-08-03T10:05:37.526Z,1001.22
2017-08-03T10:06:37.554Z,1001.19
2017-08-03T10:07:37.583Z,1001.26
2017-08-03T10:08:37.612Z,1001.26
2017-08-03T10:09:37.644Z,1001.28
2017-08-03T10:10:37.666Z,1001.25
2017-08-03T10:11:37.694Z,1001.25
2017-08-03T10:12:37.721Z,1001.24
2017-08-03T10:13:37.749Z,1001.15
2017-08-03T10:14:37.778Z,1001.15
2017-08-03T10:15:37.806Z,1001.2
2017-08-03T10:16:37.834Z,1001.16
2017-08-03T10:17:37.862Z,1001.17
2017-08-03T10:18:37.889Z,1001.13
2017-08-03T10:19:37.916Z,1001.14
2017-08-03T10:20:37.944Z,1001.12
2017-08-03T10:21:37.972Z,1001.12
2017-08-03T10:22:38.002Z,1001.06
2017-08-03T10:23:38.029Z,1001.07
2017-08-03T10:24:38.059Z,1001.09
2017-08-03T10:25:38.084Z,1001.08
2017-08-03T10:26:38.113Z,1001.05
2017-08-03T10:27:38.141Z,1000.98
2017-08-03T10:28:38.171Z,1001.01
2017-08-03T10:29:38.198Z,1000.96
2017-08-03T10:30:38.225Z,1001
2017-08-03T10:31:38.255Z,1001.01
2017-08-03T10:32:38.281Z,1001.07
2017-08-03T10:33:38.309Z,1001.13
2017-08-03T10:34:38.338Z,1001.15
2017-08-03T10:35:38.366Z,1001.17
2017-08-03T10:36:38.395Z,1001.17
2017-08-03T10:37:38.422Z,1001.13
2017-08-03T10:38:38.452Z,1001.12
2017-08-03T10:39:38.479Z,1001.1
2017-08-03T10:40:38.506Z,1001.13
2017-08-03T10:41:38.534Z,1001.08
2017-08-03T10:42:38.561Z,1001.06
2017-08-03T10:43:38.591Z,1001.06
2017-08-03T10:44:38.618Z,1001.04
2017-08-03T10:45:38.649Z,1001.02
2017-08-03T10:46:38.674Z,1000.97
2017-08-03T10:47:38.702Z,1000.96
2017-08-03T10:48:38.833Z,1000.92
2017-08-03T10:49:38.759Z,1000.89
2017-08-03T10:50:38.786Z,1000.88
2017-08-03T10:51:38.815Z,1000.84
2017-08-03T10:52:38.848Z,1000.83
2017-08-03T10:53:38.871Z,1000.8
2017-08-03T10:54:38.900Z,1000.75
2017-08-03T10:55:38.928Z,1000.72
2017-08-03T10:56:38.955Z,1000.65
2017-08-03T10:57:38.987Z,1000.54
2017-08-03T10:58:39.013Z,1000.47
2017-08-03T10:59:39.042Z,1000.39
2017-08-03T11:00:39.069Z,1000.22
2017-08-03T11:01:39.100Z,1000.17
2017-08-03T11:02:39.150Z,1000.12
2017-08-03T11:03:39.155Z,1000.12
2017-08-03T11:04:39.182Z,1000.15
2017-08-03T11:05:39.210Z,1000.1
2017-08-03T11:06:39.243Z,1000
2017-08-03T11:07:39.270Z,999.9
2017-08-03T11:08:39.297Z,999.9
2017-08-03T11:09:39.324Z,999.88
2017-08-03T11:10:39.353Z,999.84
2017-08-03T11:11:39.380Z,999.9
2017-08-03T11:12:39.409Z,999.98
2017-08-03T11:13:39.437Z,999.98
2017-08-03T11:14:39.466Z,1000.06
2017-08-03T11:15:39.495Z,1000.14
2017-08-03T11:16:39.523Z,1000.22
2017-08-03T11:17:39.551Z,1000.28
2017-08-03T11:18:39.579Z,1000.35
2017-08-03T11:19:39.607Z,1000.39
2017-08-03T11:20:39.636Z,1000.43
2017-08-03T11:21:39.665Z,1000.42
2017-08-03T11:22:39.695Z,1000.41
2017-08-03T11:23:39.722Z,1000.41
2017-08-03T11:24:39.751Z,1000.41
2017-08-03T11:25:39.779Z,1000.38
2017-08-03T11:26:39.807Z,1000.42
2017-08-03T11:27:39.837Z,1000.31
2017-08-03T11:28:39.865Z,1000.27
2017-08-03T11:29:39.892Z,1000.33
2017-08-03T11:30:39.922Z,1000.24
2017-08-03T11:31:39.950Z,1000.15
2017-08-03T11:32:39.979Z,1000.15
2017-08-03T11:33:40.008Z,1000.13
2017-08-03T11:34:40.036Z,1000.06
2017-08-03T11:35:40.065Z,1000.06
2017-08-03T11:36:40.093Z,1000.1
2017-08-03T11:37:40.121Z,1000.1
2017-08-03T11:38:40.151Z,1000.05
2017-08-03T11:39:40.179Z,999.98
2017-08-03T11:40:40.209Z,1000.07
2017-08-03T11:41:40.243Z,1000.08
2017-08-03T11:42:40.267Z,1000.09
2017-08-03T11:43:40.295Z,1000.09
2017-08-03T11:44:40.323Z,1000.05
2017-08-03T11:45:40.355Z,1000.02
2017-08-03T11:46:40.385Z,999.94
2017-08-03T11:47:40.411Z,1000.01
2017-08-03T11:48:40.442Z,1000.03
2017-08-03T11:49:40.470Z,1000.1
2017-08-03T11:50:40.502Z,1000.1
2017-08-03T11:51:40.529Z,1000.13
2017-08-03T11:52:40.556Z,1000.09
2017-08-03T11:53:40.586Z,1000.06
2017-08-03T11:54:40.614Z,1000.04
2017-08-03T11:55:40.646Z,1000.05
2017-08-03T11:56:40.674Z,1000.03
2017-08-03T11:57:40.704Z,1000.05
2017-08-03T11:58:40.730Z,1000.03
2017-08-03T11:59:40.762Z,1000.05
2017-08-03T12:00:40.790Z,1000
2017-08-03T12:01:40.821Z,999.97
2017-08-03T12:02:40.847Z,999.89
2017-08-03T12:03:40.878Z,999.95
2017-08-03T12:04:40.907Z,999.95
2017-08-03T12:05:40.937Z,999.95
2017-08-03T12:06:40.964Z,999.86
2017-08-03T12:07:40.996Z,999.79
2017-08-03T12:08:41.027Z,999.83
2017-08-03T12:09:41.056Z,999.82